Time;durP1;ratioP1;P1;durP2;ratioP2;P2;SDS_P1;SDS_P2;PMS_P1;PMS_P2;Temp;Humidity;BMP_temperature;BMP_pressure;BME280_temperature;BME280_humidity;BME280_pressure;Samples;Min_cycle;Max_cycle;Signal;HPM_P1;HPM_P2
2022/04/04 00:00:43;;;;;;;7.32;4.82;;;6.80;93.10;;;;;;5018648;28;21078;-75
2022/04/04 00:03:09;;;;;;;9.48;4.68;;;6.80;93.00;;;;;;5017126;28;20057;-74
2022/04/04 00:05:36;;;;;;;9.32;5.93;;;6.70;92.80;;;;;;5015649;28;20033;-75
2022/04/04 00:08:01;;;;;;;11.32;5.20;;;6.80;93.00;;;;;;5024607;28;21526;-75
2022/04/04 00:10:27;;;;;;;7.50;4.47;;;6.90;93.20;;;;;;5016093;28;20033;-75
2022/04/04 00:12:52;;;;;;;9.18;5.25;;;6.80;93.30;;;;;;5024662;28;20136;-74
2022/04/04 00:15:18;;;;;;;8.05;4.50;;;6.80;93.30;;;;;;5017682;28;20078;-75
2022/04/04 00:17:45;;;;;;;8.93;4.82;;;6.70;93.40;;;;;;5012180;28;20021;-75
2022/04/04 00:20:11;;;;;;;7.47;4.72;;;6.80;93.20;;;;;;5019871;28;20037;-75
2022/04/04 00:22:37;;;;;;;8.05;4.88;;;6.70;93.30;;;;;;5016912;28;20547;-75
2022/04/04 00:25:04;;;;;;;8.20;4.75;;;6.70;92.90;;;;;;5016607;28;20033;-75
2022/04/04 00:27:30;;;;;;;7.80;4.75;;;6.70;93.20;;;;;;5016709;28;21463;-75
2022/04/04 00:29:56;;;;;;;9.18;5.18;;;6.70;93.30;;;;;;5016179;28;20057;-75
2022/04/04 00:32:22;;;;;;;10.05;5.00;;;6.70;93.30;;;;;;5017606;28;20060;-75
2022/04/04 00:34:47;;;;;;;8.23;5.05;;;6.70;93.40;;;;;;5014049;28;20115;-75
2022/04/04 00:37:13;;;;;;;9.70;5.03;;;6.70;93.10;;;;;;5017595;28;20030;-75
2022/04/04 00:39:39;;;;;;;10.80;4.72;;;6.70;93.30;;;;;;5016012;28;20045;-75
2022/04/04 00:42:06;;;;;;;9.88;5.22;;;6.70;93.20;;;;;;5016139;28;20032;-75
2022/04/04 00:44:32;;;;;;;7.72;4.93;;;6.70;93.10;;;;;;5016591;28;20029;-75
2022/04/04 00:46:58;;;;;;;8.07;5.13;;;6.70;93.20;;;;;;5014157;28;20041;-75
2022/04/04 00:49:23;;;;;;;8.50;5.20;;;6.80;93.30;;;;;;5012791;28;20542;-75
2022/04/04 00:51:49;;;;;;;9.05;5.35;;;6.80;93.50;;;;;;5016232;28;20033;-75
2022/04/04 00:54:15;;;;;;;9.88;5.00;;;6.80;93.30;;;;;;5016612;28;20171;-75
2022/04/04 00:56:41;;;;;;;9.15;4.40;;;6.80;93.20;;;;;;5015873;28;20031;-75
2022/04/04 00:59:10;;;;;;;9.18;5.65;;;6.80;93.10;;;;;;5016760;28;20029;-75
2022/04/04 01:01:36;;;;;;;7.75;5.18;;;6.90;93.20;;;;;;5020872;28;20052;-75
2022/04/04 01:04:01;;;;;;;10.35;5.50;;;6.90;93.50;;;;;;5017787;28;20139;-76
2022/04/04 01:06:27;;;;;;;13.10;5.97;;;6.80;93.40;;;;;;5017281;28;20091;-75
2022/04/04 01:08:53;;;;;;;9.65;5.82;;;6.80;93.40;;;;;;5017412;28;20029;-75
2022/04/04 01:11:19;;;;;;;8.45;4.32;;;6.80;93.50;;;;;;5024905;28;20037;-75
2022/04/04 01:13:49;;;;;;;10.38;5.05;;;6.80;93.70;;;;;;5022467;28;20099;-75
2022/04/04 01:16:15;;;;;;;11.23;5.47;;;6.70;93.80;;;;;;5023461;28;20056;-75
2022/04/04 01:18:42;;;;;;;8.23;4.97;;;6.80;93.80;;;;;;5021914;28;20029;-75
2022/04/04 01:21:08;;;;;;;8.80;5.07;;;6.70;94.30;;;;;;5024771;28;20021;-75
2022/04/04 01:23:42;;;;;;;8.40;5.38;;;6.70;94.20;;;;;;5023973;28;20134;-75
2022/04/04 01:26:09;;;;;;;8.77;5.35;;;6.70;94.10;;;;;;5025518;28;20044;-75
2022/04/04 01:28:36;;;;;;;10.35;5.15;;;6.70;93.70;;;;;;5023848;28;20029;-75
2022/04/04 01:31:04;;;;;;;10.20;4.93;;;6.70;93.50;;;;;;5026125;28;20041;-75
2022/04/04 01:33:30;;;;;;;12.85;5.30;;;6.60;93.90;;;;;;5026133;28;20058;-75
2022/04/04 01:35:57;;;;;;;9.38;5.72;;;6.70;94.40;;;;;;5028393;28;20051;-75
2022/04/04 01:38:24;;;;;;;7.93;4.95;;;6.70;94.00;;;;;;5024227;28;20025;-75
2022/04/04 01:40:50;;;;;;;10.68;5.28;;;6.70;94.30;;;;;;5026927;28;20107;-75
2022/04/04 01:43:16;;;;;;;17.02;5.38;;;6.80;94.00;;;;;;5024039;28;20114;-75
2022/04/04 01:48:26;;;;;;;8.25;5.03;;;6.70;94.10;;;;;;5024114;28;20040;-75
2022/04/04 01:50:52;;;;;;;8.75;4.97;;;6.70;94.30;;;;;;5020735;28;20029;-75
2022/04/04 01:53:26;;;;;;;9.02;4.95;;;6.70;94.50;;;;;;5022249;28;20195;-75
2022/04/04 01:55:56;;;;;;;;;;;6.70;94.60;;;;;;5026108;28;20167;-75
2022/04/04 01:58:23;;;;;;;9.93;4.82;;;6.60;94.40;;;;;;5024198;28;19946;-75
2022/04/04 02:00:49;;;;;;;8.63;4.40;;;6.60;94.60;;;;;;5026072;28;20047;-75
2022/04/04 02:03:15;;;;;;;7.82;4.50;;;6.60;94.80;;;;;;5022495;28;20140;-75
2022/04/04 02:05:41;;;;;;;9.75;4.35;;;6.50;94.70;;;;;;5021762;28;21443;-75
2022/04/04 02:08:06;;;;;;;8.80;5.05;;;6.40;94.70;;;;;;5025685;28;20029;-75
2022/04/04 02:10:33;;;;;;;9.93;5.05;;;6.50;94.90;;;;;;5021358;28;20049;-75
2022/04/04 02:12:59;;;;;;;7.78;4.80;;;6.40;95.10;;;;;;5022556;28;20033;-75
2022/04/04 02:15:24;;;;;;;7.20;4.28;;;6.40;95.10;;;;;;5026919;28;20475;-74
2022/04/04 02:17:51;;;;;;;7.55;4.25;;;6.40;95.30;;;;;;5026118;28;20467;-75
2022/04/04 02:20:17;;;;;;;7.55;4.18;;;6.50;94.80;;;;;;5025323;28;20498;-75
2022/04/04 02:22:43;;;;;;;8.52;4.63;;;6.60;94.90;;;;;;5035778;28;20040;-75
2022/04/04 02:25:09;;;;;;;7.63;4.20;;;6.60;94.80;;;;;;5026973;28;20471;-75
2022/04/04 02:27:34;;;;;;;6.70;3.67;;;6.60;94.50;;;;;;5029136;28;20136;-74
2022/04/04 02:30:00;;;;;;;10.35;4.80;;;6.50;94.70;;;;;;5028301;28;20494;-75
2022/04/04 02:32:26;;;;;;;5.90;4.18;;;6.40;95.00;;;;;;5030179;28;20025;-75
2022/04/04 02:34:52;;;;;;;5.80;3.47;;;6.40;95.00;;;;;;5029096;28;20506;-75
2022/04/04 02:37:18;;;;;;;6.20;3.80;;;6.40;94.90;;;;;;5027413;28;20037;-75
2022/04/04 02:39:44;;;;;;;7.15;4.35;;;6.40;95.20;;;;;;5025381;28;20436;-75
2022/04/04 02:42:10;;;;;;;10.57;4.47;;;6.40;95.30;;;;;;5042621;28;20025;-75
2022/04/04 02:44:36;;;;;;;7.05;4.30;;;6.40;95.50;;;;;;5035172;28;20025;-75
2022/04/04 02:47:01;;;;;;;7.75;4.35;;;6.40;95.50;;;;;;5043644;28;20348;-74
2022/04/04 02:49:30;;;;;;;7.28;4.43;;;6.40;95.70;;;;;;5049004;28;20033;-75
2022/04/04 02:51:57;;;;;;;7.30;4.38;;;6.40;96.00;;;;;;5042862;28;20032;-75
2022/04/04 02:54:23;;;;;;;7.95;4.40;;;6.40;95.90;;;;;;5046640;28;20044;-75
2022/04/04 02:56:49;;;;;;;7.40;4.10;;;6.40;96.20;;;;;;5042741;28;20514;-75
2022/04/04 02:59:14;;;;;;;9.45;4.68;;;6.40;96.20;;;;;;5047195;28;20129;-75
2022/04/04 03:01:41;;;;;;;7.57;4.75;;;6.40;96.40;;;;;;5041599;28;20055;-74
2022/04/04 03:04:07;;;;;;;9.77;4.57;;;6.20;96.70;;;;;;5040836;28;20044;-74
2022/04/04 03:06:35;;;;;;;8.80;4.45;;;6.30;96.30;;;;;;5040719;28;20053;-74
2022/04/04 03:09:01;;;;;;;9.63;5.35;;;6.20;96.00;;;;;;5042527;28;20033;-74
2022/04/04 03:11:26;;;;;;;9.57;4.75;;;6.20;96.10;;;;;;5031917;28;20039;-74
2022/04/04 03:13:52;;;;;;;6.70;3.97;;;6.30;95.80;;;;;;5036654;28;20036;-73
2022/04/04 03:16:18;;;;;;;7.38;4.55;;;6.40;95.80;;;;;;5037387;28;20082;-74
2022/04/04 03:18:43;;;;;;;6.60;4.03;;;6.40;96.10;;;;;;5035510;28;20049;-75
2022/04/04 03:21:11;;;;;;;9.45;4.22;;;6.40;96.30;;;;;;5033858;28;20137;-74
2022/04/04 03:23:39;;;;;;;5.57;3.58;;;6.30;96.00;;;;;;5024619;28;20043;-74
2022/04/04 03:26:06;;;;;;;7.22;4.32;;;6.30;96.30;;;;;;5044671;28;20120;-74
2022/04/04 03:28:32;;;;;;;9.07;4.25;;;6.30;96.50;;;;;;5039987;28;20154;-74
2022/04/04 03:30:57;;;;;;;8.32;4.30;;;6.30;96.50;;;;;;5044019;28;20116;-74
2022/04/04 03:33:24;;;;;;;9.15;5.22;;;6.40;96.60;;;;;;5038682;28;20041;-74
2022/04/04 03:35:50;;;;;;;6.35;3.60;;;6.30;96.30;;;;;;5041694;28;20084;-74
2022/04/04 03:38:17;;;;;;;5.72;3.67;;;6.10;95.00;;;;;;5040029;28;20029;-74
2022/04/04 03:40:43;;;;;;;6.20;4.10;;;6.30;95.40;;;;;;5044648;28;20028;-74
2022/04/04 03:43:09;;;;;;;7.90;4.85;;;6.20;94.70;;;;;;5039939;28;20476;-74
2022/04/04 03:45:36;;;;;;;6.68;3.55;;;6.20;95.60;;;;;;5034184;28;20044;-74
2022/04/04 03:48:02;;;;;;;7.13;4.25;;;6.20;96.10;;;;;;5036663;28;20158;-74
2022/04/04 03:50:29;;;;;;;10.98;4.95;;;6.30;96.60;;;;;;5040555;28;20033;-74
2022/04/04 03:52:56;;;;;;;6.93;4.32;;;6.30;97.60;;;;;;5040972;28;20060;-74
2022/04/04 03:55:33;;;;;;;7.75;3.95;;;6.20;98.00;;;;;;5028463;28;20630;-74
2022/04/04 03:58:00;;;;;;;7.38;4.32;;;6.20;98.00;;;;;;5019344;28;20075;-74
2022/04/04 04:00:26;;;;;;;7.00;3.55;;;6.20;98.10;;;;;;5021012;28;20112;-74
2022/04/04 04:02:52;;;;;;;6.68;3.92;;;6.20;98.20;;;;;;5031406;28;20049;-75
2022/04/04 04:05:18;;;;;;;6.20;3.70;;;6.20;98.40;;;;;;5037424;28;20037;-74
2022/04/04 04:07:44;;;;;;;6.60;3.67;;;6.20;98.70;;;;;;5034576;28;20021;-74
2022/04/04 04:10:13;;;;;;;6.38;3.97;;;6.20;98.00;;;;;;5034290;28;20033;-74
2022/04/04 04:12:41;;;;;;;9.75;3.95;;;6.20;96.30;;;;;;5028062;28;20031;-74
2022/04/04 04:15:12;;;;;;;7.22;3.65;;;6.20;95.50;;;;;;5037689;28;20033;-74
2022/04/04 04:17:38;;;;;;;6.47;3.78;;;6.20;95.90;;;;;;5040308;28;20071;-74
2022/04/04 04:20:19;;;;;;;6.93;3.80;;;6.20;97.40;;;;;;5034855;28;20068;-74
2022/04/04 04:22:58;;;;;;;8.60;3.10;;;6.20;98.30;;;;;;5038696;28;20473;-74
2022/04/04 04:25:27;;;;;;;5.43;3.00;;;6.00;98.60;;;;;;5028244;28;20052;-74
2022/04/04 04:27:54;;;;;;;8.75;3.90;;;6.00;99.90;;;;;;5030250;28;20029;-75
2022/04/04 04:30:20;;;;;;;7.07;4.03;;;5.90;99.50;;;;;;5037321;28;20033;-74
2022/04/04 04:32:51;;;;;;;6.82;3.72;;;5.90;99.70;;;;;;5033207;28;20068;-73
2022/04/04 04:35:18;;;;;;;6.13;3.78;;;6.00;99.90;;;;;;5030661;28;20055;-74
2022/04/04 04:37:44;;;;;;;8.63;4.22;;;6.00;99.40;;;;;;5034849;28;20033;-74
2022/04/04 04:40:11;;;;;;;8.30;4.20;;;6.00;98.60;;;;;;5035124;28;20033;-74
2022/04/04 04:42:37;;;;;;;9.43;4.78;;;6.00;98.40;;;;;;5030699;28;20914;-74
2022/04/04 04:45:05;;;;;;;6.55;3.60;;;6.00;98.20;;;;;;5031689;28;20039;-75
2022/04/04 04:47:32;;;;;;;6.85;4.28;;;5.90;96.90;;;;;;5039345;28;20593;-74
2022/04/04 04:49:58;;;;;;;8.75;4.32;;;5.90;97.00;;;;;;5032959;28;20029;-74
2022/04/04 04:52:24;;;;;;;5.45;2.92;;;5.90;96.80;;;;;;5035065;28;20662;-74
2022/04/04 04:54:51;;;;;;;6.47;3.30;;;5.80;96.70;;;;;;5034965;28;20037;-75
2022/04/04 04:57:17;;;;;;;6.22;3.78;;;5.70;97.40;;;;;;5038450;28;20368;-74
2022/04/04 04:59:43;;;;;;;7.10;3.35;;;5.60;97.70;;;;;;5035952;28;20044;-74
2022/04/04 05:02:08;;;;;;;6.40;3.90;;;5.70;97.70;;;;;;5034009;28;20033;-74
2022/04/04 05:04:34;;;;;;;7.40;3.50;;;5.60;97.60;;;;;;5037452;28;20049;-74
2022/04/04 05:07:00;;;;;;;8.10;3.80;;;5.70;98.30;;;;;;5034489;28;20040;-74
2022/04/04 05:09:25;;;;;;;5.97;3.47;;;5.80;97.60;;;;;;5026513;28;20033;-74
2022/04/04 05:11:51;;;;;;;6.15;3.83;;;5.70;97.30;;;;;;5015478;28;20174;-74
2022/04/04 05:14:17;;;;;;;10.27;3.78;;;5.60;97.00;;;;;;5034018;28;20169;-73
2022/04/04 05:16:46;;;;;;;7.18;3.72;;;5.60;97.00;;;;;;5037015;28;20490;-74
2022/04/04 05:19:13;;;;;;;6.75;3.65;;;5.60;97.30;;;;;;5033926;28;20459;-75
2022/04/04 05:21:42;;;;;;;7.40;3.95;;;5.70;97.00;;;;;;5033134;28;20021;-74
2022/04/04 05:24:08;;;;;;;6.28;3.53;;;5.70;97.30;;;;;;5038589;28;20044;-75
2022/04/04 05:26:34;;;;;;;7.15;2.95;;;5.80;96.20;;;;;;5034460;28;20025;-75
2022/04/04 05:29:00;;;;;;;5.95;3.10;;;5.80;95.00;;;;;;5042278;28;20049;-74
2022/04/04 05:31:26;;;;;;;8.25;2.88;;;5.90;94.00;;;;;;5036441;28;20498;-75
2022/04/04 05:33:52;;;;;;;4.30;2.60;;;5.90;93.40;;;;;;5044929;28;20051;-74
2022/04/04 05:36:20;;;;;;;7.20;2.60;;;6.00;93.70;;;;;;5026552;28;20566;-74
2022/04/04 05:38:46;;;;;;;5.35;3.00;;;6.00;93.80;;;;;;5031081;28;20147;-76
2022/04/04 05:41:11;;;;;;;7.13;2.83;;;6.10;93.90;;;;;;5028203;28;20037;-75
2022/04/04 05:43:37;;;;;;;4.97;2.53;;;6.20;94.90;;;;;;5034622;28;20055;-76
2022/04/04 05:46:03;;;;;;;8.13;3.60;;;6.10;94.20;;;;;;5039724;28;20204;-77
2022/04/04 05:48:30;;;;;;;7.53;3.40;;;6.20;94.70;;;;;;5039658;28;20025;-76
2022/04/04 05:50:57;;;;;;;11.38;6.28;;;6.20;94.10;;;;;;5037867;28;20064;-75
2022/04/04 05:53:23;;;;;;;8.25;3.38;;;6.20;94.00;;;;;;5043222;28;20032;-76
2022/04/04 05:55:48;;;;;;;9.57;3.78;;;6.20;93.70;;;;;;5043331;28;20029;-74
2022/04/04 05:58:15;;;;;;;11.45;6.22;;;6.20;94.00;;;;;;5042592;28;20082;-74
2022/04/04 06:00:40;;;;;;;7.95;5.03;;;6.20;94.10;;;;;;5047489;28;20037;-75
2022/04/04 06:03:06;;;;;;;5.32;3.60;;;6.30;94.00;;;;;;5039085;28;20048;-74
2022/04/04 06:05:34;;;;;;;6.65;3.67;;;6.30;94.00;;;;;;5045615;28;20131;-75
2022/04/04 06:08:01;;;;;;;10.38;3.97;;;6.30;93.50;;;;;;5034807;28;20115;-75
2022/04/04 06:10:27;;;;;;;8.05;2.78;;;6.40;93.40;;;;;;5044589;28;20052;-75
2022/04/04 06:12:53;;;;;;;5.45;2.97;;;6.40;93.30;;;;;;5044696;28;20036;-74
2022/04/04 06:15:19;;;;;;;9.02;4.88;;;6.50;93.40;;;;;;5037237;28;20032;-74
2022/04/04 06:17:45;;;;;;;6.93;3.20;;;6.60;93.30;;;;;;5044109;28;20032;-74
2022/04/04 06:20:12;;;;;;;17.17;9.23;;;6.60;93.10;;;;;;5043041;28;20033;-75
2022/04/04 06:22:41;;;;;;;7.22;3.45;;;6.70;93.50;;;;;;5035949;28;20482;-75
2022/04/04 06:25:08;;;;;;;28.75;11.65;;;6.70;93.20;;;;;;5041935;28;20115;-75
2022/04/04 06:27:35;;;;;;;39.78;17.35;;;6.80;93.60;;;;;;5039181;28;20044;-75
2022/04/04 06:30:01;;;;;;;11.75;5.70;;;6.90;93.40;;;;;;5042667;28;20070;-75
2022/04/04 06:32:27;;;;;;;13.23;7.13;;;6.90;93.00;;;;;;5038288;28;20438;-75
2022/04/04 06:34:53;;;;;;;23.38;9.50;;;6.90;93.00;;;;;;5046272;28;20033;-74
2022/04/04 06:37:18;;;;;;;46.28;21.05;;;7.00;92.70;;;;;;5041154;28;20033;-74
2022/04/04 06:39:44;;;;;;;7.13;3.40;;;7.10;92.80;;;;;;5035040;28;20031;-74
2022/04/04 06:42:10;;;;;;;5.10;2.40;;;7.00;91.60;;;;;;5041791;28;20112;-75
2022/04/04 06:44:36;;;;;;;5.85;2.50;;;6.90;91.20;;;;;;5043093;28;20044;-74
2022/04/04 06:47:03;;;;;;;5.97;2.33;;;7.00;90.60;;;;;;5044177;28;20078;-74
2022/04/04 06:49:28;;;;;;;6.75;2.47;;;7.10;90.50;;;;;;5042609;28;20538;-74
2022/04/04 06:51:55;;;;;;;5.25;3.00;;;7.10;91.10;;;;;;5039843;28;20166;-75
2022/04/04 06:54:20;;;;;;;5.85;3.25;;;7.30;92.50;;;;;;5034741;28;20051;-73
2022/04/04 06:56:49;;;;;;;6.45;3.88;;;7.20;94.20;;;;;;5040792;28;20477;-75
2022/04/04 06:59:18;;;;;;;6.47;4.05;;;7.10;95.20;;;;;;5030321;28;20095;-74
2022/04/04 07:01:43;;;;;;;10.40;4.50;;;7.10;95.40;;;;;;5040302;28;20033;-74
2022/04/04 07:04:12;;;;;;;8.60;4.20;;;7.10;96.00;;;;;;5028688;28;20793;-74
2022/04/04 07:06:38;;;;;;;7.15;4.60;;;7.20;95.80;;;;;;5038801;28;20041;-75
2022/04/04 07:09:03;;;;;;;36.78;19.00;;;7.30;96.50;;;;;;5021147;28;20060;-74
2022/04/04 07:11:29;;;;;;;10.10;6.13;;;7.40;96.50;;;;;;5035224;28;20112;-74
2022/04/04 07:13:56;;;;;;;7.78;4.10;;;7.50;96.60;;;;;;5042267;28;20116;-74
2022/04/04 07:16:22;;;;;;;6.97;4.00;;;7.50;96.10;;;;;;5036973;28;20112;-74
2022/04/04 07:18:48;;;;;;;7.38;3.80;;;7.50;95.30;;;;;;5042453;28;20473;-75
2022/04/04 07:21:15;;;;;;;8.80;5.18;;;7.40;95.10;;;;;;5039590;28;20035;-74
2022/04/04 07:23:41;;;;;;;6.75;4.25;;;7.60;95.30;;;;;;5042771;28;20092;-75
2022/04/04 07:26:07;;;;;;;6.45;4.10;;;7.60;94.90;;;;;;5031566;28;20029;-74
2022/04/04 07:28:33;;;;;;;9.27;4.07;;;7.60;95.20;;;;;;5040966;28;20063;-75
2022/04/04 07:30:59;;;;;;;6.90;3.50;;;7.70;94.70;;;;;;5040910;28;20029;-74
2022/04/04 07:33:25;;;;;;;5.35;3.40;;;7.70;94.60;;;;;;5039021;28;20021;-74
2022/04/04 07:35:51;;;;;;;6.57;3.53;;;7.70;94.00;;;;;;5038942;28;20063;-74
2022/04/04 07:38:17;;;;;;;9.15;4.15;;;7.70;94.00;;;;;;5042891;28;20029;-74
2022/04/04 07:40:43;;;;;;;7.43;4.80;;;7.70;94.50;;;;;;5033792;28;20033;-74
2022/04/04 07:43:08;;;;;;;7.90;4.93;;;7.70;96.20;;;;;;5034500;28;20045;-75
2022/04/04 07:45:34;;;;;;;13.07;6.53;;;7.70;95.90;;;;;;5039119;28;20106;-74
2022/04/04 07:48:00;;;;;;;9.93;5.70;;;7.70;96.40;;;;;;5040049;28;20548;-75
2022/04/04 07:50:27;;;;;;;8.50;4.40;;;7.80;96.20;;;;;;5042402;28;20037;-75
2022/04/04 07:52:53;;;;;;;6.30;3.45;;;7.70;95.40;;;;;;5043275;28;20063;-75
2022/04/04 07:55:19;;;;;;;6.18;3.70;;;7.80;95.10;;;;;;5041450;28;20132;-75
2022/04/04 07:57:45;;;;;;;17.05;9.75;;;7.90;94.90;;;;;;5040500;28;20040;-75
2022/04/04 08:00:17;;;;;;;7.63;4.28;;;7.90;95.60;;;;;;5042976;28;20045;-75
2022/04/04 08:02:44;;;;;;;7.80;4.75;;;8.00;95.00;;;;;;5041243;28;20061;-74
2022/04/04 08:05:10;;;;;;;141.82;73.10;;;8.00;94.70;;;;;;5038341;28;20037;-76
2022/04/04 08:07:40;;;;;;;36.20;23.27;;;8.10;95.00;;;;;;5038570;28;20036;-76
2022/04/04 08:10:06;;;;;;;17.98;9.35;;;8.30;94.70;;;;;;5041273;28;20080;-76
2022/04/04 08:12:32;;;;;;;61.97;35.90;;;8.40;94.70;;;;;;5036895;28;20150;-75
2022/04/04 08:14:58;;;;;;;11.93;7.00;;;8.50;94.80;;;;;;5040934;28;20671;-76
2022/04/04 08:17:24;;;;;;;9.68;4.65;;;8.40;94.30;;;;;;5036711;28;20036;-75
2022/04/04 08:19:50;;;;;;;6.57;4.45;;;8.50;94.50;;;;;;5044243;28;20162;-76
2022/04/04 08:22:17;;;;;;;6.88;3.90;;;8.40;94.00;;;;;;5029423;28;20942;-76
2022/04/04 08:24:43;;;;;;;8.32;4.65;;;8.40;93.90;;;;;;5027343;28;20040;-77
2022/04/04 08:27:10;;;;;;;16.70;6.35;;;8.40;93.80;;;;;;5018861;28;20439;-76
2022/04/04 08:29:36;;;;;;;9.02;3.85;;;8.60;94.10;;;;;;5033734;28;20573;-76
2022/04/04 08:32:03;;;;;;;6.20;4.45;;;8.60;93.60;;;;;;5041322;28;20037;-76
2022/04/04 08:34:29;;;;;;;6.32;4.13;;;8.70;93.70;;;;;;5043997;28;20083;-76
2022/04/04 08:36:55;;;;;;;8.30;3.78;;;8.70;93.10;;;;;;5034956;28;20090;-76
2022/04/04 08:39:21;;;;;;;6.15;3.20;;;8.70;92.40;;;;;;5040493;28;20885;-76
2022/04/04 08:41:46;;;;;;;6.75;3.67;;;8.80;91.20;;;;;;5032937;28;20037;-78
2022/04/04 08:44:15;;;;;;;5.13;2.70;;;8.80;91.20;;;;;;5039877;28;20091;-75
2022/04/04 08:46:42;;;;;;;5.80;2.97;;;8.90;91.00;;;;;;5040703;28;20021;-75
2022/04/04 08:49:07;;;;;;;6.90;3.60;;;8.90;90.80;;;;;;5043502;28;20117;-76
2022/04/04 08:51:34;;;;;;;5.75;3.08;;;9.00;91.30;;;;;;5041113;28;20024;-76
2022/04/04 08:54:00;;;;;;;6.28;3.40;;;9.00;91.60;;;;;;5043797;28;20028;-76
2022/04/04 08:56:26;;;;;;;14.95;5.93;;;9.00;91.50;;;;;;5039814;28;20083;-76
2022/04/04 08:58:53;;;;;;;8.60;4.82;;;9.00;91.70;;;;;;5042753;28;20061;-76
2022/04/04 09:01:20;;;;;;;8.55;4.53;;;9.10;91.70;;;;;;5039370;28;20044;-77
2022/04/04 09:03:52;;;;;;;6.78;3.63;;;9.20;92.10;;;;;;5041859;28;20755;-76
2022/04/04 09:06:18;;;;;;;9.65;3.65;;;9.10;91.00;;;;;;5037979;28;20029;-76
2022/04/04 09:08:46;;;;;;;17.85;8.35;;;8.90;91.00;;;;;;5040193;28;20021;-77
2022/04/04 09:11:13;;;;;;;10.23;4.05;;;8.90;90.70;;;;;;5041632;28;20056;-76
2022/04/04 09:13:39;;;;;;;5.68;3.50;;;9.10;90.70;;;;;;5041072;28;20049;-76
2022/04/04 09:16:09;;;;;;;10.20;4.40;;;9.10;89.80;;;;;;5036372;28;20029;-76
2022/04/04 09:18:37;;;;;;;6.30;3.72;;;9.10;89.60;;;;;;5032401;28;20718;-76
2022/04/04 09:21:18;;;;;;;7.55;3.47;;;9.30;90.60;;;;;;5034516;28;20450;-76
2022/04/04 09:23:49;;;;;;;5.53;2.95;;;8.90;88.80;;;;;;5036938;28;20037;-77
2022/04/04 09:26:38;;;;;;;7.60;3.25;;;9.10;89.00;;;;;;5036714;28;20088;-76
2022/04/04 09:29:21;;;;;;;7.03;3.50;;;9.30;89.50;;;;;;5037420;28;20044;-76
2022/04/04 09:32:05;;;;;;;9.38;3.10;;;9.30;90.20;;;;;;5037374;28;20036;-76
2022/04/04 09:35:12;;;;;;;5.90;3.30;;;9.40;89.50;;;;;;5035854;28;20148;-77
2022/04/04 09:37:40;;;;;;;5.15;2.90;;;9.40;88.80;;;;;;5038056;28;20033;-76
2022/04/04 09:40:08;;;;;;;5.13;3.28;;;9.40;89.20;;;;;;5038264;28;20045;-76
2022/04/04 09:42:34;;;;;;;5.30;3.55;;;9.60;88.30;;;;;;5039439;28;20035;-76
2022/04/04 09:45:24;;;;;;;5.53;2.80;;;9.60;88.20;;;;;;5041905;28;20037;-77
2022/04/04 09:47:56;;;;;;;4.75;2.60;;;9.50;88.00;;;;;;5012916;28;20030;-76
2022/04/04 09:50:45;;;;;;;5.68;2.72;;;9.40;88.00;;;;;;5010338;28;20021;-76
2022/04/04 09:53:28;;;;;;;3.65;2.13;;;9.60;87.00;;;;;;5024906;28;21385;-77
2022/04/04 09:55:56;;;;;;;4.50;2.25;;;9.70;85.40;;;;;;5017160;28;20025;-76
2022/04/04 09:58:30;;;;;;;5.30;2.58;;;9.80;84.70;;;;;;5023014;28;20029;-76
2022/04/04 10:00:58;;;;;;;4.70;2.65;;;9.90;85.20;;;;;;5031796;28;20375;-77
2022/04/04 10:03:25;;;;;;;4.82;2.63;;;9.80;84.20;;;;;;5041750;28;20041;-76
2022/04/04 10:05:55;;;;;;;6.13;2.75;;;9.90;84.50;;;;;;5035566;28;20106;-76
2022/04/04 10:08:24;;;;;;;4.82;2.80;;;9.90;82.90;;;;;;5036319;28;20036;-76
2022/04/04 10:10:51;;;;;;;4.10;2.00;;;10.10;83.90;;;;;;5035780;28;20036;-77
2022/04/04 10:13:17;;;;;;;3.60;2.00;;;9.80;81.60;;;;;;5039578;28;20111;-76
2022/04/04 10:15:43;;;;;;;4.30;1.67;;;9.90;83.50;;;;;;5037558;28;20051;-77
2022/04/04 10:18:10;;;;;;;3.83;2.17;;;10.00;83.40;;;;;;5038494;28;20033;-78
2022/04/04 10:20:36;;;;;;;3.88;2.08;;;10.10;83.30;;;;;;5039908;28;20029;-76
2022/04/04 10:23:04;;;;;;;6.22;1.92;;;10.00;83.80;;;;;;5032134;28;20057;-76
2022/04/04 10:25:32;;;;;;;6.82;2.22;;;10.00;81.80;;;;;;5042746;28;20025;-77
2022/04/04 10:28:01;;;;;;;2.90;1.73;;;10.10;83.30;;;;;;5042750;28;20183;-76
2022/04/04 10:30:35;;;;;;;6.10;2.20;;;10.30;84.50;;;;;;5041882;28;20037;-76
2022/04/04 10:33:03;;;;;;;;;;;10.40;83.30;;;;;;5042387;28;20040;-76
2022/04/04 10:35:30;;;;;;;4.28;1.92;;;10.20;83.20;;;;;;5036880;28;19913;-77
2022/04/04 10:38:04;;;;;;;8.25;4.03;;;10.00;83.60;;;;;;5029231;28;20084;-79
2022/04/04 10:40:32;;;;;;;52.70;48.07;;;10.00;83.10;;;;;;5042443;28;20087;-77
2022/04/04 10:43:12;;;;;;;9.43;7.60;;;9.70;81.70;;;;;;5042102;28;20044;-76
2022/04/04 10:45:58;;;;;;;13.07;11.88;;;9.80;83.00;;;;;;5045635;28;20555;-77
2022/04/04 10:48:36;;;;;;;20.60;18.42;;;9.80;82.20;;;;;;5042553;28;20048;-76
2022/04/04 10:51:11;;;;;;;23.98;17.58;;;9.80;80.70;;;;;;5045666;28;20140;-76
2022/04/04 10:53:40;;;;;;;14.88;12.10;;;9.90;82.80;;;;;;5042396;28;20033;-76
2022/04/04 10:56:08;;;;;;;12.68;8.32;;;10.10;81.90;;;;;;5044836;28;20036;-77
2022/04/04 10:58:34;;;;;;;16.05;9.73;;;10.20;80.50;;;;;;5037241;28;20033;-76
2022/04/04 11:01:20;;;;;;;16.35;10.27;;;10.20;82.00;;;;;;5041485;28;20538;-76
2022/04/04 11:03:52;;;;;;;23.10;13.68;;;10.30;81.90;;;;;;5046131;28;20049;-75
2022/04/04 11:09:04;;;;;;;14.40;8.77;;;10.30;81.20;;;;;;5043212;28;20040;-77
2022/04/04 11:11:48;;;;;;;8.95;4.85;;;10.50;80.70;;;;;;5044886;28;20432;-76
2022/04/04 11:14:28;;;;;;;15.98;7.82;;;10.70;81.00;;;;;;5034499;28;20108;-77
2022/04/04 11:17:06;;;;;;;21.75;10.82;;;10.60;79.60;;;;;;5039282;28;20156;-76
2022/04/04 11:20:00;;;;;;;20.35;10.95;;;10.60;81.60;;;;;;5037838;28;20096;-76
2022/04/04 11:22:32;;;;;;;16.67;7.15;;;10.50;81.10;;;;;;5046832;28;20533;-77
2022/04/04 11:25:05;;;;;;;14.05;6.50;;;10.50;81.00;;;;;;5041047;28;20108;-76
2022/04/04 11:27:36;;;;;;;22.58;11.10;;;10.60;81.20;;;;;;5046085;28;20075;-77
2022/04/04 11:30:07;;;;;;;22.75;10.77;;;10.50;80.90;;;;;;5040717;28;20083;-73
2022/04/04 11:32:34;;;;;;;25.67;12.30;;;10.60;80.60;;;;;;5041139;28;20424;-76
2022/04/04 11:35:18;;;;;;;40.25;20.63;;;10.30;80.00;;;;;;5031469;28;20556;-77
2022/04/04 11:37:53;;;;;;;24.33;11.73;;;10.30;80.60;;;;;;5018098;28;20059;-77
2022/04/04 11:40:23;;;;;;;;;;;10.50;81.10;;;;;;5025121;28;20487;-77
2022/04/04 11:42:51;;;;;;;51.47;24.10;;;10.40;80.20;;;;;;5031703;28;19987;-77
2022/04/04 11:45:27;;;;;;;45.10;21.08;;;10.10;80.80;;;;;;5032746;28;20084;-77
2022/04/04 11:48:02;;;;;;;26.80;13.85;;;10.20;80.80;;;;;;5018549;28;20044;-76
2022/04/04 11:50:30;;;;;;;36.50;24.15;;;10.50;81.70;;;;;;5017659;28;20448;-77
2022/04/04 11:53:02;;;;;;;265.15;192.80;;;10.50;80.60;;;;;;5027523;28;20536;-76
2022/04/04 11:55:31;;;;;;;57.08;51.38;;;10.70;81.00;;;;;;5040724;28;20029;-77
2022/04/04 11:58:00;;;;;;;8.13;7.10;;;10.60;82.00;;;;;;5043568;28;20021;-77
2022/04/04 12:00:31;;;;;;;5.20;3.40;;;10.90;81.50;;;;;;5042688;28;20029;-77
2022/04/04 12:03:03;;;;;;;4.65;2.35;;;10.90;81.90;;;;;;5037766;28;20136;-77
2022/04/04 12:05:31;;;;;;;4.65;2.65;;;10.90;81.30;;;;;;5034921;28;20060;-77
2022/04/04 12:07:58;;;;;;;5.78;3.65;;;10.60;81.30;;;;;;5039956;28;20033;-77
2022/04/04 12:10:31;;;;;;;8.45;3.10;;;10.70;80.70;;;;;;5037897;28;20493;-77
2022/04/04 12:13:05;;;;;;;7.70;3.95;;;10.50;80.40;;;;;;5032616;28;20552;-78
2022/04/04 12:15:34;;;;;;;9.50;5.47;;;10.50;81.80;;;;;;5031275;28;20025;-77
2022/04/04 12:18:00;;;;;;;9.25;5.57;;;10.60;82.00;;;;;;5025612;28;20037;-77
2022/04/04 12:20:41;;;;;;;7.00;4.65;;;10.60;81.80;;;;;;5021454;28;20115;-76
2022/04/04 12:25:59;;;;;;;4.57;2.47;;;10.60;81.60;;;;;;5037756;28;20048;-77
2022/04/04 12:28:30;;;;;;;5.93;2.60;;;10.80;81.70;;;;;;5035083;28;20032;-77
2022/04/04 12:30:56;;;;;;;4.78;2.90;;;10.80;81.10;;;;;;5018908;28;20037;-77
2022/04/04 12:33:31;;;;;;;6.07;3.85;;;10.90;81.60;;;;;;5014067;28;20033;-77
2022/04/04 12:35:57;;;;;;;8.70;3.40;;;11.10;82.50;;;;;;5025517;28;20037;-77
2022/04/04 12:38:27;;;;;;;10.02;5.63;;;11.00;80.70;;;;;;5028976;28;20098;-77
2022/04/04 12:41:03;;;;;;;7.30;5.13;;;10.90;80.40;;;;;;5042505;28;20032;-76
2022/04/04 12:43:29;;;;;;;7.20;4.70;;;10.80;81.40;;;;;;5043963;28;20568;-77
2022/04/04 12:45:55;;;;;;;10.80;8.18;;;10.80;80.70;;;;;;5035156;28;20059;-77
2022/04/04 12:48:21;;;;;;;12.25;11.02;;;10.90;80.70;;;;;;5032447;28;20032;-77
2022/04/04 12:50:49;;;;;;;7.68;4.53;;;10.80;80.80;;;;;;5034080;28;20029;-77
2022/04/04 12:53:18;;;;;;;12.63;8.77;;;10.80;81.00;;;;;;5034661;28;20029;-77
2022/04/04 12:56:02;;;;;;;9.82;5.03;;;10.70;80.10;;;;;;5039237;28;20033;-77
2022/04/04 12:58:28;;;;;;;5.53;3.15;;;10.90;81.60;;;;;;5038685;28;20072;-77
2022/04/04 13:00:54;;;;;;;51.95;41.38;;;11.00;81.40;;;;;;5037515;28;20056;-77
2022/04/04 13:03:24;;;;;;;14.85;11.45;;;10.90;80.00;;;;;;5039288;28;20040;-77
2022/04/04 13:05:55;;;;;;;10.13;5.45;;;10.80;81.30;;;;;;5041990;28;20079;-77